Time;durP1;ratioP1;P1;durP2;ratioP2;P2;SDS_P1;SDS_P2;PMS_P1;PMS_P2;Temp;Humidity;BMP_temperature;BMP_pressure;BME280_temperature;BME280_humidity;BME280_pressure;Samples;Min_cycle;Max_cycle;Signal;HPM_P1;HPM_P2
2022/09/04 00:02:37;;;;;;;;;26.00;23.50;;;;;19.96;70.54;100769.47;5093350;28;45266;-83
2022/09/04 00:05:19;;;;;;;;;22.25;21.00;;;;;20.17;70.34;100821.88;5093254;27;45563;-83
2022/09/04 00:08:21;;;;;;;;;17.50;17.50;;;;;20.13;70.05;100815.63;5094228;27;45610;-83
2022/09/04 00:11:11;;;;;;;;;20.00;19.75;;;;;20.09;69.90;100817.41;5107828;27;44937;-82
2022/09/04 00:13:44;;;;;;;;;18.75;17.50;;;;;19.89;69.93;100783.69;5093549;27;44972;-81
2022/09/04 00:16:18;;;;;;;;;17.25;15.00;;;;;19.82;69.87;100786.38;5092876;28;45722;-81
2022/09/04 00:18:46;;;;;;;;;18.25;17.25;;;;;20.04;69.55;100835.22;5093249;27;45040;-81
2022/09/04 00:21:23;;;;;;;;;18.75;18.25;;;;;19.90;69.58;100805.06;5093488;27;45116;-82
2022/09/04 00:24:16;;;;;;;;;20.50;20.00;;;;;20.01;69.94;100829.03;5092739;27;45064;-81
2022/09/04 00:27:05;;;;;;;;;21.25;18.25;;;;;20.02;69.53;100844.16;5091081;27;45226;-81
2022/09/04 00:29:38;;;;;;;;;21.00;19.25;;;;;19.85;69.58;100817.50;5093114;28;45450;-81
2022/09/04 00:32:12;;;;;;;;;21.00;19.25;;;;;20.01;69.15;100848.59;5092937;28;44949;-81
2022/09/04 00:34:49;;;;;;;;;20.25;18.50;;;;;20.01;69.38;100845.94;5093476;27;44942;-81
2022/09/04 00:37:21;;;;;;;;;17.00;16.25;;;;;20.00;69.54;100846.81;5092748;28;45705;-81
2022/09/04 00:39:56;;;;;;;;;17.00;15.75;;;;;19.99;69.33;100850.34;5091250;27;45159;-82
2022/09/04 00:43:05;;;;;;;;;14.50;14.00;;;;;19.90;69.33;100829.06;5092054;28;45247;-81
2022/09/04 00:45:46;;;;;;;;;17.50;16.50;;;;;19.79;69.40;100825.50;5091502;27;45212;-82
2022/09/04 00:48:36;;;;;;;;;16.25;16.00;;;;;19.85;69.35;100841.50;5092540;27;45602;-81
2022/09/04 00:51:19;;;;;;;;;17.50;16.50;;;;;19.79;69.61;100845.06;5092963;27;45041;-81
2022/09/04 00:54:08;;;;;;;;;16.25;14.75;;;;;19.74;69.83;100844.19;5092569;27;44972;-81
2022/09/04 00:56:53;;;;;;;;;14.75;14.75;;;;;19.66;69.82;100846.00;5108183;27;45252;-82
2022/09/04 01:00:01;;;;;;;;;20.75;19.75;;;;;19.67;69.75;100857.53;5091929;28;49108;-82
2022/09/04 01:02:55;;;;;;;;;16.25;15.50;;;;;19.62;69.82;100868.22;5091558;27;45269;-81
2022/09/04 01:05:48;;;;;;;;;15.75;15.75;;;;;19.56;69.67;100860.19;5092812;27;45299;-82
2022/09/04 01:08:33;;;;;;;;;16.75;15.50;;;;;19.52;70.08;100855.75;5092640;28;44985;-81
2022/09/04 01:11:32;;;;;;;;;17.75;17.25;;;;;19.35;69.87;100845.06;5090813;27;45197;-81
2022/09/04 01:14:12;;;;;;;;;14.50;14.50;;;;;19.48;69.82;100875.28;5108179;27;45511;-82
2022/09/04 01:16:48;;;;;;;;;13.50;12.75;;;;;19.43;69.97;100874.41;5091799;28;44972;-81
2022/09/04 01:19:50;;;;;;;;;15.25;14.00;;;;;19.39;69.72;100878.84;5092122;27;44852;-82
2022/09/04 01:22:23;;;;;;;;;13.00;13.00;;;;;19.25;69.97;100864.59;5091982;27;45112;-81
2022/09/04 01:25:16;;;;;;;;;15.00;14.50;;;;;19.35;70.17;100882.38;5107524;27;45336;-82
2022/09/04 01:28:03;;;;;;;;;16.50;13.75;;;;;19.35;69.61;100882.38;5091872;28;45016;-82
2022/09/04 01:30:40;;;;;;;;;13.00;12.00;;;;;19.31;69.59;100881.50;5091753;27;45046;-81
2022/09/04 01:33:11;;;;;;;;;14.50;14.50;;;;;19.31;69.93;100880.63;5090154;27;45751;-81
2022/09/04 01:36:13;;;;;;;;;12.75;12.75;;;;;19.29;69.64;100885.03;5091603;27;45089;-81
2022/09/04 01:39:00;;;;;;;;;12.75;11.50;;;;;19.30;69.55;100879.69;5091640;28;45024;-82
2022/09/04 01:41:31;;;;;;;;;12.00;12.00;;;;;19.31;69.62;100885.94;5090005;27;44944;-82
2022/09/04 01:43:56;;;;;;;;;10.25;10.25;;;;;19.18;69.74;100871.72;5091967;27;45205;-81
2022/09/04 01:46:48;;;;;;;;;14.50;13.25;;;;;19.23;69.76;100875.25;5091546;27;45182;-81
2022/09/04 01:49:36;;;;;;;;;12.75;12.75;;;;;19.28;69.51;100894.81;5091654;27;45132;-81
2022/09/04 01:52:27;;;;;;;;;12.25;10.50;;;;;19.16;69.74;100876.16;5107145;27;45216;-82
2022/09/04 01:55:44;;;;;;;;;12.00;11.75;;;;;19.22;69.43;100892.16;5091410;28;45531;-81
2022/09/04 01:58:24;;;;;;;;;12.75;12.00;;;;;19.24;69.72;100900.13;5089794;28;45858;-82
2022/09/04 02:01:27;;;;;;;;;11.00;10.75;;;;;19.24;69.41;100901.03;5089446;28;45164;-81
2022/09/04 02:04:06;;;;;;;;;11.50;11.50;;;;;19.21;69.52;100900.13;5090336;27;45000;-82
2022/09/04 02:06:58;;;;;;;;;10.75;9.50;;;;;19.15;69.42;100897.44;5091091;27;45207;-82
2022/09/04 02:09:34;;;;;;;;;11.50;9.25;;;;;19.21;68.89;100910.78;5091355;27;45134;-82
2022/09/04 02:12:10;;;;;;;;;11.75;11.75;;;;;19.26;69.06;100914.34;5088906;28;45114;-81
2022/09/04 02:15:05;;;;;;;;;9.25;9.25;;;;;19.29;68.99;100909.03;5091296;27;45157;-82
2022/09/04 02:17:58;;;;;;;;;11.00;10.25;;;;;19.29;69.05;100915.25;5091023;28;45503;-81
2022/09/04 02:20:26;;;;;;;;;9.50;8.25;;;;;19.27;68.63;100902.81;5107468;27;45703;-81
2022/09/04 02:23:14;;;;;;;;;7.75;7.25;;;;;19.28;68.38;100912.59;5091671;28;44991;-81
2022/09/04 02:25:42;;;;;;;;;10.25;10.25;;;;;19.22;68.65;100916.13;5089708;27;45379;-81
2022/09/04 02:28:38;;;;;;;;;10.50;9.75;;;;;19.19;68.78;100920.56;5090070;27;45628;-81
2022/09/04 02:31:28;;;;;;;;;7.50;7.50;;;;;19.16;68.83;100921.47;5091451;27;45164;-81
2022/09/04 02:34:11;;;;;;;;;11.00;9.25;;;;;19.12;68.74;100926.78;5091783;28;44986;-81
2022/09/04 02:37:15;;;;;;;;;7.50;7.50;;;;;19.04;69.03;100919.63;5091273;27;45022;-81
2022/09/04 02:39:59;;;;;;;;;8.50;8.25;;;;;19.08;68.84;100928.53;5090856;27;45106;-81
2022/09/04 02:42:38;;;;;;;;;11.50;11.00;;;;;18.92;68.81;100916.94;5090046;27;45477;-82
2022/09/04 02:45:12;;;;;;;;;7.25;7.00;;;;;19.01;68.57;100930.31;5106577;27;45685;-82
2022/09/04 02:48:05;;;;;;;;;8.75;8.00;;;;;18.98;68.65;100938.25;5107104;27;45071;-82
2022/09/04 02:50:50;;;;;;;;;9.00;9.00;;;;;18.92;68.67;100938.25;5091110;27;45781;-81
2022/09/04 02:53:48;;;;;;;;;8.00;8.00;;;;;18.79;68.77;100916.00;5090359;27;45559;-81
2022/09/04 02:56:26;;;;;;;;;8.00;8.00;;;;;18.95;68.76;100951.56;5089182;27;45100;-81
2022/09/04 02:58:56;;;;;;;;;8.00;8.00;;;;;18.94;68.44;100946.25;5091162;27;45111;-81
2022/09/04 03:01:50;;;;;;;;;7.00;6.75;;;;;18.74;68.77;100915.09;5090635;27;45681;-81
2022/09/04 03:04:26;;;;;;;;;8.00;8.00;;;;;18.90;68.28;100936.44;5109800;27;45156;-81
2022/09/04 03:07:07;;;;;;;;;5.50;5.50;;;;;18.87;68.77;100944.47;5093859;27;45064;-81
2022/09/04 03:09:49;;;;;;;;;7.00;7.00;;;;;18.82;68.42;100941.78;5094167;27;44870;-82
2022/09/04 03:12:37;;;;;;;;;8.00;7.00;;;;;18.69;68.50;100923.94;5092377;28;45273;-82
2022/09/04 03:15:12;;;;;;;;;7.25;6.75;;;;;18.74;68.83;100947.03;5093967;27;45593;-83
2022/09/04 03:17:49;;;;;;;;;7.00;7.00;;;;;18.63;68.75;100929.22;5093878;27;45127;-81
2022/09/04 03:20:24;;;;;;;;;7.75;7.25;;;;;18.67;68.95;100945.22;5094130;27;45174;-81
2022/09/04 03:23:03;;;;;;;;;8.00;7.50;;;;;18.66;68.98;100945.19;5094148;28;45679;-81
2022/09/04 03:25:47;;;;;;;;;5.75;5.75;;;;;18.67;69.24;100938.97;5093064;27;45956;-81
2022/09/04 03:28:24;;;;;;;;;8.00;8.00;;;;;18.61;68.87;100931.84;5110135;27;44973;-81
2022/09/04 03:30:51;;;;;;;;;11.75;9.00;;;;;18.74;68.96;100940.84;5094114;27;44988;-81
2022/09/04 03:33:28;;;;;;;;;9.50;8.50;;;;;18.66;69.07;100938.09;5093803;27;45713;-81
2022/09/04 03:36:09;;;;;;;;;10.00;9.75;;;;;18.71;69.16;100949.69;5090849;28;45633;-81
2022/09/04 03:39:01;;;;;;;;;8.50;7.00;;;;;18.74;69.18;100949.72;5093974;27;44996;-81
2022/09/04 03:42:14;;;;;;;;;9.25;8.00;;;;;18.63;69.38;100922.13;5093606;27;44997;-82
2022/09/04 03:45:18;;;;;;;;;9.00;8.00;;;;;18.68;69.21;100938.13;5091977;27;45085;-81
2022/09/04 03:47:59;;;;;;;;;8.75;8.25;;;;;18.65;69.08;100932.78;5093529;27;45621;-81
2022/09/04 03:50:42;;;;;;;;;11.50;9.50;;;;;18.60;69.29;100915.88;5093787;27;44999;-82
2022/09/04 03:53:19;;;;;;;;;7.50;7.00;;;;;18.77;69.06;100943.53;5093223;27;45143;-81
2022/09/04 03:56:06;;;;;;;;;6.00;6.00;;;;;18.64;69.23;100925.66;5091921;27;46076;-82
2022/09/04 03:58:59;;;;;;;;;8.25;7.00;;;;;18.63;69.06;100916.81;5093838;27;45514;-81
2022/09/04 04:01:35;;;;;;;;;7.75;7.00;;;;;18.80;68.68;100952.41;5093628;27;44998;-81
2022/09/04 04:04:25;;;;;;;;;5.50;5.25;;;;;18.84;68.57;100952.41;5094025;27;44932;-82
2022/09/04 04:07:36;;;;;;;;;6.50;5.75;;;;;18.86;68.73;100951.53;5093320;28;45552;-82
2022/09/04 04:10:19;;;;;;;;;6.75;6.75;;;;;18.92;68.41;100950.69;5091420;28;45178;-81
2022/09/04 04:12:55;;;;;;;;;4.50;4.50;;;;;18.94;68.17;100943.56;5091197;27;45013;-81
2022/09/04 04:15:26;;;;;;;;;6.25;6.00;;;;;19.00;68.12;100960.47;5108874;27;44939;-81
2022/09/04 04:18:19;;;;;;;;;5.75;5.75;;;;;19.01;67.84;100959.59;5108564;27;46712;-81
2022/09/04 04:21:05;;;;;;;;;7.25;6.00;;;;;19.01;67.97;100967.59;5093494;27;45505;-81
2022/09/04 04:24:04;;;;;;;;;6.25;6.25;;;;;19.00;68.04;100955.13;5093229;28;45157;-81
2022/09/04 04:26:46;;;;;;;;;7.00;6.50;;;;;18.97;68.08;100963.13;5090860;28;45230;-81
2022/09/04 04:29:24;;;;;;;;;6.50;6.25;;;;;18.96;67.76;100961.31;5093134;27;45238;-81
2022/09/04 04:32:12;;;;;;;;;8.25;8.25;;;;;18.93;67.43;100964.00;5092388;27;45413;-83
2022/09/04 04:35:02;;;;;;;;;5.25;5.25;;;;;18.90;67.68;100971.06;5108817;27;45028;-82
2022/09/04 04:37:58;;;;;;;;;7.00;5.75;;;;;18.84;67.64;100974.63;5108658;27;45260;-82
2022/09/04 04:40:51;;;;;;;;;8.50;7.75;;;;;18.77;67.91;100972.81;5091633;28;45607;-81
2022/09/04 04:43:27;;;;;;;;;5.50;5.00;;;;;18.66;67.95;100963.81;5093194;27;45599;-82
2022/09/04 04:46:06;;;;;;;;;6.50;6.50;;;;;18.62;68.25;100968.28;5092979;27;45139;-81
2022/09/04 04:49:09;;;;;;;;;8.25;7.50;;;;;18.61;68.14;100970.91;5092332;27;44878;-81
2022/09/04 04:51:49;;;;;;;;;6.00;5.75;;;;;18.50;68.31;100973.50;5092556;27;45971;-82
2022/09/04 04:54:36;;;;;;;;;8.75;7.75;;;;;18.50;68.37;100985.03;5092650;27;45672;-82
2022/09/04 04:57:11;;;;;;;;;5.75;5.75;;;;;18.44;68.73;100986.78;5106741;27;45013;-82
2022/09/04 04:59:54;;;;;;;;;6.75;6.75;;;;;18.41;68.70;100990.31;5092630;27;45049;-81
2022/09/04 05:02:33;;;;;;;;;6.75;6.75;;;;;18.38;69.00;100992.97;5092444;27;45947;-82
2022/09/04 05:05:16;;;;;;;;;7.00;7.00;;;;;18.35;68.56;101002.69;5092564;27;45153;-82
2022/09/04 05:08:09;;;;;;;;;8.50;8.50;;;;;18.31;68.74;101000.00;5090840;27;45149;-81
2022/09/04 05:10:49;;;;;;;;;5.75;5.75;;;;;18.21;69.01;100979.53;5091079;28;45313;-82
2022/09/04 05:14:00;;;;;;;;;6.75;6.75;;;;;18.36;69.43;101002.69;5092284;27;45558;-81
2022/09/04 05:16:47;;;;;;;;;6.50;6.50;;;;;18.34;69.34;101003.56;5090167;27;45506;-82
2022/09/04 05:19:37;;;;;;;;;8.00;8.00;;;;;18.33;68.85;101007.13;5092286;27;45206;-81
2022/09/04 05:22:19;;;;;;;;;6.75;6.00;;;;;18.33;69.29;101012.44;5092007;28;45090;-81
2022/09/04 05:25:27;;;;;;;;;6.75;6.75;;;;;18.30;69.31;101018.63;5091850;27;45767;-81
2022/09/04 05:28:25;;;;;;;;;8.50;8.50;;;;;18.25;69.27;101015.03;5089923;28;45147;-82
2022/09/04 05:31:16;;;;;;;;;12.00;10.00;;;;;18.23;69.79;101022.13;5091944;27;45070;-82
2022/09/04 05:33:56;;;;;;;;;8.50;7.00;;;;;18.22;69.34;101028.31;5092103;28;44912;-81
2022/09/04 05:36:36;;;;;;;;;9.50;8.50;;;;;18.23;69.44;101022.13;5090962;27;46080;-82
2022/09/04 05:39:25;;;;;;;;;8.75;8.75;;;;;18.17;69.90;101022.94;5089999;28;45055;-81
2022/09/04 05:41:53;;;;;;;;;9.50;9.25;;;;;18.25;69.99;101039.00;5089206;27;44969;-81
2022/09/04 05:44:37;;;;;;;;;6.75;6.75;;;;;18.28;69.97;101039.03;5092189;27;45023;-82
2022/09/04 05:47:34;;;;;;;;;10.00;9.50;;;;;18.29;69.86;101041.69;5092068;27;45388;-82
2022/09/04 05:50:28;;;;;;;;;6.50;5.75;;;;;18.21;70.17;101035.41;5092250;28;45485;-82
2022/09/04 05:53:11;;;;;;;;;9.50;8.00;;;;;18.34;69.94;101054.13;5091510;27;45220;-81
2022/09/04 05:55:42;;;;;;;;;8.25;8.25;;;;;18.38;70.31;101056.84;5088702;27;45070;-82
2022/09/04 05:58:33;;;;;;;;;10.00;7.75;;;;;18.43;70.21;101055.09;5090832;27;45422;-82
2022/09/04 06:01:14;;;;;;;;;9.25;7.75;;;;;18.45;70.27;101053.31;5091792;27;45284;-82
2022/09/04 06:03:48;;;;;;;;;10.50;9.25;;;;;18.50;70.22;101064.00;5092231;27;45141;-82
2022/09/04 06:06:22;;;;;;;;;10.00;8.50;;;;;18.46;69.97;101049.78;5107281;27;45230;-82
2022/09/04 06:09:35;;;;;;;;;10.00;9.50;;;;;18.46;69.75;101047.13;5090605;27;45476;-81
2022/09/04 06:12:20;;;;;;;;;8.75;8.75;;;;;18.58;70.30;101069.41;5088277;28;45587;-81
2022/09/04 06:14:58;;;;;;;;;10.00;9.25;;;;;18.52;69.79;101047.19;5091430;27;45056;-81
2022/09/04 06:17:42;;;;;;;;;7.00;6.00;;;;;18.63;70.10;101070.31;5091251;27;44889;-81
2022/09/04 06:20:23;;;;;;;;;8.75;8.75;;;;;18.55;69.93;101049.84;5091657;27;45745;-81
2022/09/04 06:22:54;;;;;;;;;8.50;7.75;;;;;18.62;69.62;101045.47;5089507;28;45244;-81
2022/09/04 06:25:40;;;;;;;;;9.50;9.25;;;;;18.81;69.62;101073.13;5090759;27;45024;-81
2022/09/04 06:28:36;;;;;;;;;11.75;11.75;;;;;18.87;69.80;101075.84;5090136;27;45533;-82
2022/09/04 06:31:20;;;;;;;;;8.25;8.25;;;;;18.91;69.27;101077.63;5091405;27;45552;-82
2022/09/04 06:33:51;;;;;;;;;9.00;9.00;;;;;18.96;68.53;101083.84;5091158;27;45549;-82
2022/09/04 06:36:19;;;;;;;;;6.75;6.75;;;;;19.01;68.80;101084.81;5088553;28;45270;-82
2022/09/04 06:38:52;;;;;;;;;11.75;10.75;;;;;19.06;69.02;101087.47;5093344;27;45053;-82
2022/09/04 06:41:39;;;;;;;;;8.75;7.50;;;;;19.13;68.15;101083.09;5092931;27;46134;-80
2022/09/04 06:44:31;;;;;;;;;8.75;8.75;;;;;19.24;67.92;101092.00;5094670;28;45096;-82
2022/09/04 06:47:09;;;;;;;;;9.00;9.00;;;;;19.28;68.03;101084.03;5095019;27;44976;-81
2022/09/04 06:50:16;;;;;;;;;11.25;9.75;;;;;19.35;68.33;101100.94;5095082;27;45332;-81
2022/09/04 06:52:54;;;;;;;;;7.25;7.25;;;;;19.42;68.34;101091.22;5094006;27;45209;-82
2022/09/04 06:55:19;;;;;;;;;8.00;7.50;;;;;19.49;68.07;101096.56;5107515;27;45826;-82
2022/09/04 06:58:02;;;;;;;;;6.67;6.67;;;;;19.59;67.78;101095.72;5091357;27;45299;-82
2022/09/04 07:00:39;;;;;;;;;8.00;7.50;;;;;19.69;67.76;101101.09;5092101;27;45057;-82
2022/09/04 07:03:42;;;;;;;;;6.50;6.00;;;;;19.78;67.14;101099.34;5092711;27;46247;-82
2022/09/04 07:06:17;;;;;;;;;6.00;6.00;;;;;19.85;66.08;101097.56;5093071;27;45478;-82
2022/09/04 07:08:50;;;;;;;;;7.75;7.50;;;;;19.87;65.91;101094.94;5094574;27;45155;-82
2022/09/04 07:11:16;;;;;;;;;6.00;6.00;;;;;19.94;65.54;101099.38;5093282;27;45107;-82
2022/09/04 07:13:55;;;;;;;;;7.00;7.00;;;;;19.82;66.08;101079.81;5093634;27;46118;-82
2022/09/04 07:16:33;;;;;;;;;5.50;5.25;;;;;20.04;65.86;101112.72;5105041;27;45409;-82
2022/09/04 07:19:19;;;;;;;;;7.75;6.00;;;;;20.13;65.21;101101.19;5108413;27;45082;-82
2022/09/04 07:22:15;;;;;;;;;6.00;6.00;;;;;20.13;65.40;101098.53;5094171;27;45064;-83
2022/09/04 07:25:16;;;;;;;;;7.50;7.25;;;;;20.30;65.38;101111.91;5092895;27;45527;-82
2022/09/04 07:27:41;;;;;;;;;6.50;6.00;;;;;20.35;64.81;101115.47;5090799;28;45557;-82
2022/09/04 07:30:13;;;;;;;;;7.33;7.33;;;;;20.33;64.80;101106.53;5089758;27;44912;-82
2022/09/04 07:33:02;;;;;;;;;6.50;5.75;;;;;20.32;64.53;101116.34;5092944;27;45312;-82
2022/09/04 07:35:37;;;;;;;;;7.75;7.25;;;;;20.33;64.85;101127.91;5094014;27;45840;-82
2022/09/04 07:38:26;;;;;;;;;7.75;7.75;;;;;20.31;64.82;101121.69;5091080;27;45484;-82
2022/09/04 07:41:08;;;;;;;;;8.25;7.00;;;;;20.29;64.30;101118.97;5091770;27;45065;-82
2022/09/04 07:43:56;;;;;;;;;8.00;7.75;;;;;20.37;64.07;101132.34;5091245;27;45306;-82
2022/09/04 07:46:32;;;;;;;;;8.00;7.00;;;;;20.40;64.09;101132.38;5092433;27;46188;-82
2022/09/04 07:49:08;;;;;;;;;6.50;6.50;;;;;20.40;63.84;101128.81;5091357;27;45145;-82
2022/09/04 07:52:13;;;;;;;;;7.00;7.00;;;;;20.28;64.80;101102.97;5092287;27;45282;-82
2022/09/04 07:54:50;;;;;;;;;5.50;5.00;;;;;20.51;64.13;101141.28;5081755;28;44960;-82
2022/09/04 07:57:46;;;;;;;;;8.25;6.75;;;;;20.55;64.34;101144.88;5091567;27;45984;-82
2022/09/04 08:00:17;;;;;;;;;9.00;8.00;;;;;20.55;65.06;101134.19;5092754;27;45631;-82
2022/09/04 08:03:15;;;;;;;;;5.50;5.50;;;;;20.63;63.84;101152.84;5094029;27;44949;-82
2022/09/04 08:05:54;;;;;;;;;5.00;5.00;;;;;20.69;63.92;101166.22;5092388;27;45341;-82
2022/09/04 08:08:36;;;;;;;;;7.00;7.00;;;;;20.64;64.60;101147.53;5092857;27;45755;-83
2022/09/04 08:11:16;;;;;;;;;6.25;6.25;;;;;20.79;64.01;101166.22;5090844;27;45514;-82
2022/09/04 08:14:06;;;;;;;;;7.50;7.00;;;;;20.83;64.24;101149.28;5093828;27;45018;-82
2022/09/04 08:17:05;;;;;;;;;7.25;7.25;;;;;20.88;64.12;101162.63;5092226;27;45076;-82
2022/09/04 08:20:02;;;;;;;;;6.25;5.75;;;;;20.92;63.52;101158.19;5090556;28;46280;-83
2022/09/04 08:22:40;;;;;;;;;6.25;5.50;;;;;20.82;63.78;101139.50;5093023;27;45088;-83
2022/09/04 08:25:19;;;;;;;;;6.00;6.00;;;;;21.00;63.25;101159.06;5092637;27;45069;-81
2022/09/04 08:28:19;;;;;;;;;6.50;6.50;;;;;21.05;63.28;101157.28;5091119;27;45151;-81
2022/09/04 08:31:02;;;;;;;;;8.00;7.00;;;;;21.10;62.94;101163.50;5092736;27;46153;-82
2022/09/04 08:33:49;;;;;;;;;4.75;4.75;;;;;20.99;63.45;101130.59;5092055;28;45174;-82
2022/09/04 08:36:29;;;;;;;;;6.00;6.00;;;;;21.20;63.15;101159.03;5093020;27;45070;-82
2022/09/04 08:39:33;;;;;;;;;8.00;7.00;;;;;21.18;63.72;101151.03;5092841;28;44945;-82
2022/09/04 08:42:36;;;;;;;;;7.75;7.00;;;;;21.30;63.67;101166.13;5088198;27;45777;-82
2022/09/04 08:45:32;;;;;;;;;6.00;6.00;;;;;21.29;62.44;101151.88;5092307;27;45476;-83
2022/09/04 08:48:31;;;;;;;;;5.00;5.00;;;;;21.39;62.41;101163.47;5093118;27;45211;-82
2022/09/04 08:51:28;;;;;;;;;6.00;6.00;;;;;21.42;60.92;101162.56;5092289;27;45086;-82
2022/09/04 08:54:12;;;;;;;;;8.25;7.00;;;;;21.49;60.85;101159.88;5091657;28;45295;-82
2022/09/04 08:56:48;;;;;;;;;7.50;6.00;;;;;21.37;60.70;101138.50;5105367;27;45508;-82
2022/09/04 08:59:38;;;;;;;;;6.00;5.00;;;;;21.59;60.87;101171.44;5092959;27;45080;-83
2022/09/04 09:02:13;;;;;;;;;5.75;5.50;;;;;21.65;60.61;101176.75;5089541;27;44907;-82
2022/09/04 09:04:58;;;;;;;;;5.00;5.00;;;;;21.71;60.40;101174.03;5090725;27;45838;-82
2022/09/04 09:07:51;;;;;;;;;5.75;4.75;;;;;21.78;61.03;101177.59;5092040;27;45120;-82
2022/09/04 09:10:39;;;;;;;;;4.50;4.50;;;;;21.85;60.47;101182.91;5089568;27;44978;-82
2022/09/04 09:13:16;;;;;;;;;4.75;4.75;;;;;21.93;59.28;101185.56;5092336;28;45201;-81
2022/09/04 09:15:56;;;;;;;;;4.50;4.50;;;;;21.99;59.07;101185.50;5091232;28;45271;-83
2022/09/04 09:18:38;;;;;;;;;4.00;4.00;;;;;22.04;59.03;101180.13;5089869;27;45020;-82
2022/09/04 09:21:06;;;;;;;;;5.00;5.00;;;;;22.11;58.45;101181.91;5090543;27;45071;-82
2022/09/04 09:23:43;;;;;;;;;5.00;4.00;;;;;22.18;58.58;101182.78;5092690;27;44981;-83
2022/09/04 09:26:28;;;;;;;;;6.25;4.75;;;;;22.22;58.05;101180.06;5090546;28;45747;-83
2022/09/04 09:28:56;;;;;;;;;5.25;5.00;;;;;22.34;57.61;101177.28;5091676;27;45076;-82
2022/09/04 09:31:56;;;;;;;;;6.00;6.00;;;;;22.34;57.75;101154.97;5090123;27;45234;-82
2022/09/04 09:34:55;;;;;;;;;4.00;4.00;;;;;22.50;57.98;101179.84;5088696;27;44899;-82
2022/09/04 09:37:52;;;;;;;;;5.75;4.00;;;;;22.57;56.94;101176.25;5091836;27;45646;-82
2022/09/04 09:40:38;;;;;;;;;5.75;5.50;;;;;22.69;57.55;101175.25;5090292;28;45201;-83
2022/09/04 09:43:41;;;;;;;;;7.00;7.00;;;;;22.74;57.03;101173.41;5092477;28;44978;-82
2022/09/04 09:46:21;;;;;;;;;9.00;7.25;;;;;22.81;56.05;101180.53;5091867;27;45012;-81
2022/09/04 09:48:58;;;;;;;;;5.75;5.75;;;;;22.83;56.14;101176.91;5091583;27;45573;-82
2022/09/04 09:51:43;;;;;;;;;4.75;4.75;;;;;22.91;55.97;101168.84;5092191;27;45013;-81
2022/09/04 09:54:46;;;;;;;;;4.00;3.25;;;;;23.01;55.62;101169.66;5089927;27;45224;-81
2022/09/04 09:57:49;;;;;;;;;5.00;5.00;;;;;23.07;56.04;101167.78;5089479;27;45125;-82
2022/09/04 10:00:16;;;;;;;;;7.00;6.00;;;;;23.08;55.36;101155.25;5091839;28;45502;-81
2022/09/04 10:03:00;;;;;;;;;5.25;5.25;;;;;23.21;55.46;101156.91;5090826;27;45781;-81
2022/09/04 10:05:54;;;;;;;;;5.00;5.00;;;;;23.26;55.51;101164.91;5091783;28;44977;-81
2022/09/04 10:08:57;;;;;;;;;5.25;4.50;;;;;23.33;55.08;101159.44;5091329;27;45528;-81
2022/09/04 10:11:56;;;;;;;;;5.50;5.25;;;;;23.39;55.01;101162.06;5088804;28;45390;-82
2022/09/04 10:14:36;;;;;;;;;6.00;6.00;;;;;23.46;54.19;101153.97;5091761;27;45389;-81
2022/09/04 10:17:39;;;;;;;;;8.25;8.25;;;;;23.57;54.97;101152.91;5091684;27;45240;-81
2022/09/04 10:20:48;;;;;;;;;7.00;5.50;;;;;23.65;53.86;101151.06;5091800;27;44933;-81
2022/09/04 10:23:31;;;;;;;;;6.00;6.00;;;;;23.67;54.86;101149.22;5090624;28;45512;-82
2022/09/04 10:26:08;;;;;;;;;6.50;6.00;;;;;23.71;54.53;101149.19;5087699;27;45495;-82
2022/09/04 10:28:50;;;;;;;;;5.00;4.25;;;;;23.72;53.51;101138.44;5091739;27;45115;-81
2022/09/04 10:31:53;;;;;;;;;6.00;5.50;;;;;23.84;52.84;101145.41;5091256;27;45049;-81
2022/09/04 10:34:43;;;;;;;;;3.50;3.50;;;;;23.81;52.51;101132.06;5091393;28;45728;-81
2022/09/04 10:37:56;;;;;;;;;5.25;5.25;;;;;23.94;52.76;101144.41;5106896;27;45423;-82
2022/09/04 10:41:01;;;;;;;;;4.75;4.75;;;;;24.02;53.81;101144.28;5071288;28;45101;-82
2022/09/04 10:43:38;;;;;;;;;6.00;5.25;;;;;24.05;53.20;101147.81;5085168;28;45196;-82
2022/09/04 10:46:33;;;;;;;;;7.25;7.00;;;;;24.10;53.44;101145.97;5090590;27;46016;-81
2022/09/04 10:49:32;;;;;;;;;7.50;6.75;;;;;24.13;52.86;101135.16;5091232;27;45192;-81
2022/09/04 10:52:05;;;;;;;;;5.75;5.75;;;;;24.18;52.64;101137.78;5090110;27;45094;-81
2022/09/04 10:54:44;;;;;;;;;8.50;7.50;;;;;24.26;51.95;101133.19;5090649;27;44930;-82
2022/09/04 10:57:47;;;;;;;;;17.25;15.50;;;;;24.33;52.80;101129.47;5088844;27;45499;-82
2022/09/04 11:00:17;;;;;;;;;6.25;5.75;;;;;24.28;52.52;101115.22;5090902;27;45610;-82
2022/09/04 11:03:20;;;;;;;;;7.00;7.00;;;;;24.43;52.22;101125.78;5091197;28;45038;-81
2022/09/04 11:06:14;;;;;;;;;5.00;5.00;;;;;24.35;52.56;101095.44;5091175;27;45195;-82
2022/09/04 11:08:48;;;;;;;;;5.00;5.00;;;;;24.61;52.41;101121.00;5105226;27;46025;-82
2022/09/04 11:11:27;;;;;;;;;5.00;5.00;;;;;24.65;51.86;101112.84;5088611;27;45057;-82
2022/09/04 11:14:10;;;;;;;;;6.00;6.00;;;;;24.77;51.35;101118.91;5091166;27;45050;-82
2022/09/04 11:17:03;;;;;;;;;6.25;4.25;;;;;24.84;51.42;101115.22;5087377;27;45417;-82
2022/09/04 11:19:47;;;;;;;;;3.75;3.75;;;;;24.91;50.25;101119.56;5091197;28;46220;-83
2022/09/04 11:22:37;;;;;;;;;5.25;5.25;;;;;24.94;50.28;101098.88;5090197;28;45419;-82
2022/09/04 11:25:32;;;;;;;;;6.00;6.00;;;;;25.17;50.06;101114.63;5093041;27;45126;-82
2022/09/04 11:28:24;;;;;;;;;5.00;4.75;;;;;25.27;49.88;101112.63;5094541;28;45275;-82
2022/09/04 11:31:02;;;;;;;;;3.00;3.00;;;;;25.34;49.72;101103.50;5094073;27;45942;-82
2022/09/04 11:33:55;;;;;;;;;8.00;7.00;;;;;25.44;49.64;101102.38;5094038;27;45530;-82
2022/09/04 11:36:24;;;;;;;;;5.75;5.75;;;;;25.59;49.83;101102.97;5093906;28;45008;-82
2022/09/04 11:38:55;;;;;;;;;5.00;4.00;;;;;25.69;48.94;101097.34;5094045;27;45018;-82
2022/09/04 11:42:07;;;;;;;;;6.25;6.25;;;;;25.71;49.04;101090.16;5092138;27;45633;-82
2022/09/04 11:45:02;;;;;;;;;7.00;6.50;;;;;25.74;48.90;101081.09;5092291;27;45149;-82
2022/09/04 11:47:53;;;;;;;;;4.00;3.75;;;;;25.91;48.40;101104.97;5093789;27;45003;-83
2022/09/04 11:50:21;;;;;;;;;5.00;5.00;;;;;25.93;47.84;101097.75;5093553;27;44952;-83
2022/09/04 11:53:21;;;;;;;;;5.75;4.25;;;;;25.98;48.24;101099.41;5093413;27;45049;-82
2022/09/04 11:55:56;;;;;;;;;4.75;4.00;;;;;26.08;48.30;101099.22;5091468;27;45437;-82
2022/09/04 11:58:35;;;;;;;;;5.00;5.00;;;;;26.22;47.70;101103.34;5093956;27;45055;-83
2022/09/04 12:01:18;;;;;;;;;5.25;5.25;;;;;26.36;47.77;101105.72;5093255;28;45045;-83
2022/09/04 12:04:02;;;;;;;;;4.00;4.00;;;;;26.45;47.44;101099.22;5109098;27;45935;-83
2022/09/04 12:06:49;;;;;;;;;4.00;4.00;;;;;26.54;47.63;101095.41;5092970;28;45055;-83
2022/09/04 12:09:43;;;;;;;;;6.00;5.25;;;;;26.63;47.49;101092.47;5093703;27;45150;-83
2022/09/04 12:12:36;;;;;;;;;5.00;5.00;;;;;26.72;47.50;101089.53;5092446;28;45120;-83
2022/09/04 12:15:30;;;;;;;;;7.25;7.00;;;;;26.84;47.55;101082.91;5093307;27;45756;-82
2022/09/04 12:18:15;;;;;;;;;5.75;5.75;;;;;26.95;47.22;101081.72;5093037;27;45288;-83
2022/09/04 12:21:09;;;;;;;;;5.00;5.00;;;;;27.12;47.40;101085.78;5092695;27;44999;-82
2022/09/04 12:23:56;;;;;;;;;4.50;4.50;;;;;27.34;47.58;101077.91;5093248;28;44935;-82
2022/09/04 12:26:34;;;;;;;;;4.75;4.75;;;;;27.56;46.98;101076.38;5091363;28;45638;-82
2022/09/04 12:29:11;;;;;;;;;5.25;5.25;;;;;27.83;47.34;101073.75;5109011;27;45389;-82
2022/09/04 12:32:11;;;;;;;;;6.00;5.00;;;;;28.01;45.25;101055.13;5107662;27;45057;-82
2022/09/04 12:35:02;;;;;;;;;5.00;4.00;;;;;28.39;45.70;101073.78;5093269;27;45224;-82
2022/09/04 12:37:52;;;;;;;;;6.50;6.00;;;;;28.69;44.96;101066.41;5092238;27;44980;-82
2022/09/04 12:40:33;;;;;;;;;7.25;7.00;;;;;28.99;44.63;101075.28;5091288;28;45441;-82
2022/09/04 12:43:07;;;;;;;;;5.00;5.00;;;;;29.32;44.62;101073.16;5092867;28;44937;-82
2022/09/04 12:46:11;;;;;;;;;7.00;6.00;;;;;29.79;43.65;101075.84;5093037;27;44880;-81
2022/09/04 12:48:57;;;;;;;;;5.00;5.00;;;;;31.32;41.50;101066.59;5108439;27;46326;-82